Flight Track Log - Related Links

Times and Time Zones

All times are in EDT time to prevent confusion due to time zone crossing. See the UAL5862 flight status page for this flight to view local times or setup timezone preferences in your user account.

Time Position Orientation Groundspeed Altitude Reporting Facility
EDT Latitude Longitude Course Direction KTS MPH feet Rate Location/Type
Wed 10:52:17 PM 41.9833 -87.8833 88° East 167 192 1,900  Level Chicago TRACON
Wed 10:53:17 PM 42.0167 -87.8000 62° Northeast 250 288 4,500 2,918 Climbing Chicago TRACON
Wed 10:55:00 PM 42.0969 -87.4550 66° East  Level Estimated
Wed 10:55:20 PM 42.0797 -87.6197 65° Northeast 276 318 10,800  Level Chicago Center
Wed 10:56:00 PM 42.1255 -87.3418 77° East  Level Estimated
Wed 10:56:21 PM 42.1150 -87.5128 66° East 309 356 13,000  Level Chicago Center
Wed 10:57:00 PM 42.1539 -87.2286 88° East  Level Estimated
Wed 10:57:22 PM 42.1456 -87.3869 72° East 349 402 14,600  Level Chicago Center
Wed 10:58:23 PM 42.1775 -87.2500 72° East 381 438 15,000 197 Climbing Chicago Center
Wed 10:59:24 PM 42.2114 -87.1103 72° East 393 452 15,000  Level Chicago Center
Wed 11:00:24 PM 42.2456 -86.9703 72° East 395 455 15,000  Level Chicago Center
Wed 11:01:25 PM 42.2792 -86.8297 72° East 395 455 15,000  Level Chicago Center
Wed 11:02:26 PM 42.3097 -86.6925 73° East 396 456 15,000 49 Level Chicago Center
Wed 11:03:27 PM 42.3486 -86.5253 72° East 393 452 15,100 49 Climbing Chicago Center
Wed 11:04:28 PM 42.3806 -86.3869 73° East 388 447 15,100  Level Chicago Center
Wed 11:05:29 PM 42.4122 -86.2475 73° East 389 448 15,100  Level Chicago Center
Wed 11:06:29 PM 42.4442 -86.1089 73° East 389 448 15,100  Level Chicago Center
Wed 11:07:30 PM 42.4761 -85.9700 73° East 390 449 15,100  Level Chicago Center
Wed 11:08:31 PM 42.5081 -85.8294 73° East 393 452 15,100 -49 Level Chicago Center
Wed 11:09:32 PM 42.5386 -85.6886 74° East 394 453 15,000 -541 Descending Chicago Center
Wed 11:10:33 PM 42.5697 -85.5514 73° East 389 448 14,000 -942 Descending Chicago Center
Wed 11:11:33 PM 42.5992 -85.4186 73° East 378 435 13,100 -1,140 Descending Chicago Center
Wed 11:12:34 PM 42.6281 -85.2853 74° East 372 428 11,700 -1,328 Descending Chicago Center
Wed 11:13:35 PM 42.6542 -85.1658 73° East 341 392 10,400 -1,475 Descending Chicago Center
Wed 11:14:36 PM 42.7028 -85.0631 57° Northeast 278 320 8,700 -2,066 Descending Chicago Center
Wed 11:15:37 PM 42.7508 -84.9889 49° Northeast 265 305 6,200 -2,066 Descending Chicago Center
Wed 11:16:38 PM 42.7956 -84.9206 48° Northeast 250 288 4,500 -1,140 Descending Chicago Center
Wed 11:17:38 PM 42.8153 -84.8600 66° East 211 243 3,900 -397 Descending Chicago Center
Wed 11:18:39 PM 42.7861 -84.8172 133° Southeast 181 208 3,700 -443 Descending Chicago Center
Wed 11:19:40 PM 42.7794 -84.7386 97° East 192 221 3,000 -836 Descending Chicago Center
Wed 11:20:41 PM 42.7786 -84.6756 91° East 178 205 2,000 -694 Descending Chicago Center
Wed 11:21:41 PM 42.7708 -84.6278 102° East 161 185 1,600 -400 Descending Chicago Center

Login

Don't have an account? Register now (free) for customized features, flight alerts, and more!